Brunswick, ME (04011)

12:05 PM EDT on April 26, 2017 (GMT -0400)
Jordan Acres | | Change Station
Active Advisory: Coastal Flood Advisory Active Notice: Coastal Flood Advisory

Elev 39 ft 43.92 °N, 69.95 °W | Updated 1 minute ago

Overcast
Overcast
51.8 °F
Feels Like 51.8 °F
N
0.0
Wind Variable Wind from NW
Gusts 0.0 mph

Today
High -- | Low -- °F
--% Chance of Precip.
Yesterday
High -- | Low -- °F
Precip. -- in
Pressure 30.00 in
Visibility 3.0 miles
Clouds Overcast 300 ft
Dew Point 51 °F
Humidity 98%
Rainfall 1.03 in
Snow Depth Not available.
5:38 AM 7:37 PM
New Moon, 0% visible
METAR KIWI 261553Z AUTO VRB04KT 3SM -RA BR OVC003 12/12 A3000 RMK AO2 SLP159 P0002 T01170117
Pressure 30.00 in
Visibility 3.0 miles
Clouds Overcast 300 ft
Dew Point 51 °F
Humidity 98%
Rainfall 1.03 in
Snow Depth Not available.
5:38 AM 7:37 PM
New Moon, 0% visible
METAR KIWI 261553Z AUTO VRB04KT 3SM -RA BR OVC003 12/12 A3000 RMK AO2 SLP159 P0002 T01170117

Get Your Daily Forecast Email!

Thanks for signing up!

Be on the lookout for a verification email in your inbox.

You'll start receiving severe weather alerts in your inbox..

×

10-Day Weather Forecast

Almanac

Astronomy

Apr. 26, 2017 Rise Set
Actual Time
Civil Twilight
Nautical Twilight
Astronomical Twilight
Moon
Length of Visible Light
Length of Day
Tomorrow will be .
, % of the Moon is Illuminated

Today's Extremes

State Highs State Lows

Community

WunderPhotos

WunderBlog® & News

Nearby

Air Quality

  Air Quality AQ Index Pollutant
Not available.

Snow Depth

Station Depth Elevation

Earthquake Activity

City Distance Mag. Time & Date
Minimum magnitude displayed is 2.5.

Coastal Water Temperatures

Place Temperature

Stations

Nearby Weather Stations

Station Location Temp. Windchill Dew Point Humidity Wind Precip. Elev Updated Type
                   

Watches & Warnings

Coastal Flood Advisory
Issued: 3:24 AM EDT Apr. 26, 2017 – National Weather Service

... Coastal flood advisory in effect from 10 PM this evening to
2 am EDT Thursday...

The National Weather Service in gray has issued a coastal flood
advisory... which is in effect from 10 PM this evening to 2 am EDT
Thursday.

* Location... the New Hampshire seacoast and the beaches of
southwest Maine to the south of Portland.

* Coastal flooding... the combination of high astronomical tides
and an onshore wind will create a threat for splash over and
beach erosion near the time of high tide tonight.

* Timing... near the time of high tide tonight.

* Impacts... the potential exists for splash over and minor beach
erosion.

Precautionary/preparedness actions...

A coastal flood advisory indicates that onshore winds and tides
will combine to generate flooding of low areas along the shore.